Time;durP1;ratioP1;P1;durP2;ratioP2;P2;SDS_P1;SDS_P2;PMS_P1;PMS_P2;Temp;Humidity;BMP_temperature;BMP_pressure;BME280_temperature;BME280_humidity;BME280_pressure;Samples;Min_cycle;Max_cycle;Signal;HPM_P1;HPM_P2
2022/11/23 00:01:15;;;;;;;15.35;6.80;;;10.50;99.90;;;;;;5138519;27;20079;-63
2022/11/23 00:03:42;;;;;;;17.17;7.57;;;10.60;99.90;;;;;;5138573;27;20134;-63
2022/11/23 00:06:08;;;;;;;17.73;7.53;;;10.60;99.90;;;;;;5138715;27;20111;-63
2022/11/23 00:08:34;;;;;;;16.88;8.35;;;10.60;99.90;;;;;;5138312;27;20063;-63
2022/11/23 00:11:00;;;;;;;17.10;8.77;;;10.60;99.90;;;;;;5138389;27;20023;-63
2022/11/23 00:13:26;;;;;;;21.83;9.52;;;10.50;99.90;;;;;;5138696;27;20038;-63
2022/11/23 00:15:52;;;;;;;14.45;7.50;;;10.60;99.90;;;;;;5138095;27;20039;-62
2022/11/23 00:18:18;;;;;;;15.07;6.80;;;10.60;99.90;;;;;;5138322;27;20100;-63
2022/11/23 00:20:44;;;;;;;22.70;10.07;;;10.50;99.90;;;;;;5138386;27;20039;-63
2022/11/23 00:23:10;;;;;;;25.02;10.45;;;10.30;99.90;;;;;;5138232;27;20031;-63
2022/11/23 00:25:36;;;;;;;23.20;11.00;;;10.20;99.90;;;;;;5138130;27;20035;-63
2022/11/23 00:28:02;;;;;;;29.30;13.90;;;10.10;99.90;;;;;;5138128;27;20023;-63
2022/11/23 00:30:28;;;;;;;33.42;14.75;;;10.00;99.90;;;;;;5137903;27;20547;-63
2022/11/23 00:32:55;;;;;;;31.80;15.82;;;9.90;99.90;;;;;;5138206;27;20046;-63
2022/11/23 00:35:22;;;;;;;35.10;16.35;;;9.90;99.90;;;;;;5119623;27;20024;-63
2022/11/23 00:37:48;;;;;;;27.65;11.35;;;9.90;99.90;;;;;;5119384;27;20333;-63
2022/11/23 00:40:14;;;;;;;28.73;15.05;;;9.90;99.90;;;;;;5137940;27;20047;-63
2022/11/23 00:42:40;;;;;;;34.63;15.07;;;9.90;99.90;;;;;;5138037;27;20050;-63
2022/11/23 00:45:07;;;;;;;30.98;13.93;;;9.90;99.90;;;;;;5137601;27;20023;-63
2022/11/23 00:47:33;;;;;;;39.17;17.30;;;9.80;99.90;;;;;;5119389;27;20388;-63
2022/11/23 00:49:58;;;;;;;46.60;20.77;;;9.70;99.90;;;;;;5118973;27;20031;-63
2022/11/23 00:52:24;;;;;;;17.85;9.07;;;9.70;99.90;;;;;;5137694;27;20023;-63
2022/11/23 00:54:50;;;;;;;18.05;7.85;;;9.70;99.90;;;;;;5137468;27;20031;-63
2022/11/23 00:57:16;;;;;;;15.07;6.47;;;9.70;99.90;;;;;;5119296;27;20113;-63
2022/11/23 00:59:43;;;;;;;12.98;6.93;;;9.50;99.90;;;;;;5119031;27;20065;-63
2022/11/23 01:02:09;;;;;;;17.35;7.22;;;9.50;99.90;;;;;;5136417;27;20063;-63
2022/11/23 01:04:38;;;;;;;14.93;7.88;;;9.40;99.90;;;;;;5137325;27;20027;-63
2022/11/23 01:07:04;;;;;;;23.42;8.88;;;9.50;99.90;;;;;;5137358;27;20078;-63
2022/11/23 01:09:31;;;;;;;28.15;11.60;;;9.50;99.90;;;;;;5137173;27;20362;-63
2022/11/23 01:11:57;;;;;;;24.25;11.15;;;9.40;99.90;;;;;;5118967;27;20084;-63
2022/11/23 01:14:23;;;;;;;19.30;9.05;;;9.40;99.90;;;;;;5118489;27;20043;-63
2022/11/23 01:16:49;;;;;;;19.13;8.70;;;9.30;99.90;;;;;;5137160;27;20362;-63
2022/11/23 01:19:17;;;;;;;20.58;9.27;;;9.20;99.90;;;;;;5137057;27;20497;-63
2022/11/23 01:21:47;;;;;;;25.98;10.50;;;9.30;99.90;;;;;;5102089;27;20054;-63
2022/11/23 01:24:16;;;;;;;17.52;9.10;;;9.20;99.90;;;;;;5137209;27;20050;-63
2022/11/23 01:26:43;;;;;;;41.70;16.83;;;9.20;99.90;;;;;;5137055;27;20031;-63
2022/11/23 01:29:09;;;;;;;34.28;13.32;;;9.30;99.90;;;;;;5136899;27;20070;-63
2022/11/23 01:31:39;;;;;;;19.63;9.43;;;9.20;99.90;;;;;;5136990;27;20106;-63
2022/11/23 01:34:05;;;;;;;16.75;8.77;;;9.20;99.90;;;;;;5136658;27;20098;-63
2022/11/23 01:36:33;;;;;;;21.25;9.77;;;9.10;99.90;;;;;;5136760;27;20027;-63
2022/11/23 01:39:01;;;;;;;31.92;12.35;;;9.10;99.90;;;;;;5136793;27;20453;-63
2022/11/23 01:41:32;;;;;;;35.88;16.25;;;9.00;99.90;;;;;;5118193;27;20069;-63
2022/11/23 01:43:58;;;;;;;42.05;17.15;;;9.00;99.90;;;;;;5101370;27;20058;-63
2022/11/23 01:46:24;;;;;;;32.83;14.00;;;9.00;99.90;;;;;;5118283;27;20033;-63
2022/11/23 01:49:04;;;;;;;24.60;10.35;;;9.00;99.90;;;;;;5136124;27;20097;-63
2022/11/23 01:51:38;;;;;;;19.10;8.80;;;8.90;99.90;;;;;;5136493;27;20050;-63
2022/11/23 01:54:08;;;;;;;30.05;13.38;;;8.90;99.90;;;;;;5136488;27;20107;-63
2022/11/23 01:56:39;;;;;;;23.90;12.60;;;8.80;99.90;;;;;;5118052;27;20035;-63
2022/11/23 01:59:07;;;;;;;;;;;8.70;99.90;;;;;;5118367;27;20031;-63
2022/11/23 02:01:33;;;;;;;37.50;18.50;;;8.80;99.90;;;;;;5136188;27;20345;-63
2022/11/23 02:04:00;;;;;;;37.65;18.90;;;8.70;99.90;;;;;;5136289;27;20115;-63
2022/11/23 02:06:27;;;;;;;43.58;22.13;;;8.70;99.90;;;;;;5136177;27;20132;-63
2022/11/23 02:08:53;;;;;;;43.38;21.33;;;8.60;99.90;;;;;;5136042;27;20028;-63
2022/11/23 02:11:19;;;;;;;54.25;26.13;;;8.40;99.90;;;;;;5117653;27;20384;-63
2022/11/23 02:13:48;;;;;;;49.38;26.05;;;8.30;99.90;;;;;;5135641;27;20047;-63
2022/11/23 02:16:16;;;;;;;65.90;30.90;;;8.10;99.90;;;;;;5117560;27;20430;-63
2022/11/23 02:18:47;;;;;;;68.65;33.95;;;8.20;99.90;;;;;;5117677;27;20534;-63
2022/11/23 02:21:13;;;;;;;63.97;33.10;;;8.20;99.90;;;;;;5136079;27;20400;-63
2022/11/23 02:24:07;;;;;;;70.95;36.78;;;8.20;99.90;;;;;;5117456;27;20484;-63
2022/11/23 02:26:36;;;;;;;68.88;36.67;;;8.00;99.90;;;;;;5136038;27;20110;-63
2022/11/23 02:29:10;;;;;;;74.55;39.35;;;7.90;99.90;;;;;;5135798;27;20051;-63
2022/11/23 02:31:36;;;;;;;89.18;40.65;;;7.70;99.90;;;;;;5135634;27;20106;-63
2022/11/23 02:34:02;;;;;;;87.45;43.35;;;7.60;99.90;;;;;;5135916;27;20062;-63
2022/11/23 02:36:35;;;;;;;87.82;42.33;;;7.60;99.90;;;;;;5117337;27;20023;-63
2022/11/23 02:39:35;;;;;;;85.22;42.30;;;7.60;99.90;;;;;;5135953;27;20038;-63
2022/11/23 02:42:03;;;;;;;89.70;42.47;;;7.40;99.90;;;;;;5097710;27;20039;-63
2022/11/23 02:45:07;;;;;;;91.68;43.00;;;7.30;99.90;;;;;;5135631;27;20023;-62
2022/11/23 02:47:35;;;;;;;88.65;41.97;;;7.20;99.90;;;;;;5117225;28;20034;-63
2022/11/23 02:50:01;;;;;;;89.38;42.28;;;7.00;99.90;;;;;;5116825;27;20468;-63
2022/11/23 02:52:26;;;;;;;81.57;41.03;;;7.00;99.90;;;;;;5117034;28;20499;-63
2022/11/23 02:54:56;;;;;;;84.13;41.35;;;6.90;99.90;;;;;;5117288;28;20038;-63
2022/11/23 02:57:22;;;;;;;89.22;42.47;;;6.80;99.90;;;;;;5117114;28;20024;-63
2022/11/23 02:59:48;;;;;;;87.15;44.55;;;6.80;99.90;;;;;;5116899;28;20031;-63
2022/11/23 03:02:14;;;;;;;85.45;41.60;;;6.80;99.90;;;;;;5135075;28;20034;-63
2022/11/23 03:04:40;;;;;;;81.35;40.92;;;6.70;99.90;;;;;;5117227;28;20031;-63
2022/11/23 03:07:06;;;;;;;89.07;40.97;;;6.70;99.90;;;;;;5135225;28;20111;-63
2022/11/23 03:09:32;;;;;;;78.35;39.33;;;6.60;99.90;;;;;;5116940;28;20027;-63
2022/11/23 03:11:58;;;;;;;83.55;40.92;;;6.60;99.90;;;;;;5135295;28;20125;-63
2022/11/23 03:14:26;;;;;;;85.25;41.50;;;6.60;99.90;;;;;;5116642;28;20035;-63
2022/11/23 03:16:57;;;;;;;79.18;41.60;;;6.60;99.90;;;;;;5135355;28;20422;-63
2022/11/23 03:19:23;;;;;;;78.93;41.10;;;6.60;99.90;;;;;;5116775;28;20413;-63
2022/11/23 03:21:52;;;;;;;78.45;40.60;;;6.60;99.90;;;;;;5116721;28;20043;-63
2022/11/23 03:24:18;;;;;;;81.32;40.70;;;6.50;99.90;;;;;;5100018;28;20035;-63
2022/11/23 03:26:45;;;;;;;74.97;37.35;;;6.50;99.90;;;;;;5120690;27;20090;-63
2022/11/23 03:29:17;;;;;;;63.75;36.00;;;6.40;99.90;;;;;;5120618;27;20032;-63
2022/11/23 03:31:43;;;;;;;71.85;36.10;;;6.40;99.90;;;;;;5120723;27;20023;-63
2022/11/23 03:34:12;;;;;;;65.70;35.92;;;6.30;99.90;;;;;;5120742;27;20023;-63
2022/11/23 03:36:39;;;;;;;67.78;36.83;;;6.30;99.90;;;;;;5120700;27;20507;-63
2022/11/23 03:39:05;;;;;;;72.32;37.97;;;6.30;99.90;;;;;;5120693;27;20131;-62
2022/11/23 03:42:00;;;;;;;63.25;35.80;;;6.40;99.90;;;;;;5082580;27;20075;-63
2022/11/23 03:44:31;;;;;;;67.20;35.88;;;6.40;99.90;;;;;;5120483;27;20030;-62
2022/11/23 03:46:58;;;;;;;59.65;33.08;;;6.30;99.90;;;;;;5120538;27;20484;-63
2022/11/23 03:49:25;;;;;;;61.25;33.67;;;6.30;99.90;;;;;;5120114;27;20027;-63
2022/11/23 03:51:52;;;;;;;67.43;36.75;;;6.30;99.90;;;;;;5120278;27;20057;-63
2022/11/23 03:54:18;;;;;;;64.85;35.88;;;6.30;99.90;;;;;;5120340;27;20047;-63
2022/11/23 03:56:44;;;;;;;61.30;34.80;;;6.40;99.90;;;;;;5120178;27;20030;-62
2022/11/23 03:59:10;;;;;;;61.22;33.38;;;6.40;99.90;;;;;;5120510;27;20031;-63
2022/11/23 04:01:37;;;;;;;66.85;35.63;;;6.40;99.90;;;;;;5120263;27;20138;-63
2022/11/23 04:04:07;;;;;;;59.60;33.55;;;6.40;99.90;;;;;;5119971;27;20265;-63
2022/11/23 04:06:51;;;;;;;52.85;30.90;;;6.40;99.90;;;;;;5138810;27;20388;-63
2022/11/23 04:09:21;;;;;;;55.83;31.27;;;6.40;99.90;;;;;;5119916;27;20026;-63
2022/11/23 04:12:08;;;;;;;56.72;30.15;;;6.40;99.90;;;;;;5138242;27;20037;-63
2022/11/23 04:14:36;;;;;;;52.80;30.08;;;6.50;99.90;;;;;;5119697;27;20494;-63
2022/11/23 04:17:02;;;;;;;53.50;30.50;;;6.50;99.90;;;;;;5119916;27;20026;-63
2022/11/23 04:19:29;;;;;;;50.90;30.92;;;6.60;99.90;;;;;;5119975;27;20058;-63
2022/11/23 04:21:55;;;;;;;54.22;29.92;;;6.50;99.90;;;;;;5119809;27;20061;-63
2022/11/23 04:24:21;;;;;;;54.47;31.38;;;6.70;99.90;;;;;;5119706;27;20034;-63
2022/11/23 04:26:48;;;;;;;58.05;32.35;;;6.70;99.90;;;;;;5119591;27;20038;-63
2022/11/23 04:29:14;;;;;;;55.25;29.88;;;6.70;99.90;;;;;;5138030;27;20101;-63
2022/11/23 04:31:45;;;;;;;;;;;6.70;99.90;;;;;;5119985;27;20024;-63
2022/11/23 04:34:13;;;;;;;58.67;30.48;;;6.70;99.90;;;;;;5137945;27;19908;-63
2022/11/23 04:36:40;;;;;;;63.92;33.53;;;6.70;99.90;;;;;;5119430;27;20023;-63
2022/11/23 04:39:09;;;;;;;67.50;36.38;;;6.70;99.90;;;;;;5119392;27;20476;-63
2022/11/23 04:41:44;;;;;;;78.43;37.80;;;6.70;99.90;;;;;;5119401;27;20080;-63
2022/11/23 04:44:10;;;;;;;67.32;34.97;;;6.90;99.90;;;;;;5119708;27;20039;-63
2022/11/23 04:46:39;;;;;;;65.88;33.72;;;7.00;99.90;;;;;;5119258;27;20031;-63
2022/11/23 04:49:09;;;;;;;53.03;29.48;;;7.00;99.90;;;;;;5119051;27;20163;-63
2022/11/23 04:51:36;;;;;;;47.53;27.27;;;7.00;99.90;;;;;;5119270;27;20031;-63
2022/11/23 04:54:02;;;;;;;43.45;25.48;;;6.90;99.90;;;;;;5137620;27;20472;-63
2022/11/23 04:56:33;;;;;;;50.50;26.95;;;6.80;99.90;;;;;;5102957;27;20229;-62
2022/11/23 04:58:59;;;;;;;46.30;26.33;;;6.80;99.90;;;;;;5119115;27;20027;-63
2022/11/23 05:01:26;;;;;;;51.97;29.15;;;6.80;99.90;;;;;;5118846;27;20023;-63
2022/11/23 05:04:11;;;;;;;44.80;25.13;;;6.90;99.90;;;;;;5137533;27;20388;-63
2022/11/23 05:06:37;;;;;;;59.42;29.00;;;7.00;99.90;;;;;;5137344;27;20027;-63
2022/11/23 05:09:03;;;;;;;59.40;30.50;;;7.10;99.90;;;;;;5118718;27;20031;-63
2022/11/23 05:12:01;;;;;;;49.92;28.75;;;7.10;99.90;;;;;;5111112;27;20030;-63
2022/11/23 05:14:27;;;;;;;50.33;26.70;;;7.10;99.90;;;;;;5118621;27;20054;-63
2022/11/23 05:16:53;;;;;;;50.45;28.05;;;7.10;99.90;;;;;;5137235;27;20728;-63
2022/11/23 05:19:19;;;;;;;53.00;27.48;;;7.00;99.90;;;;;;5118624;27;20031;-63
2022/11/23 05:21:46;;;;;;;41.75;24.00;;;7.10;99.90;;;;;;5118677;27;20034;-63
2022/11/23 05:24:14;;;;;;;38.47;23.98;;;7.10;99.90;;;;;;5118578;27;20038;-63
2022/11/23 05:26:47;;;;;;;37.55;23.08;;;7.10;99.90;;;;;;5118421;27;20027;-63
2022/11/23 05:29:13;;;;;;;38.78;20.55;;;7.20;99.90;;;;;;5118346;27;20038;-63
2022/11/23 05:31:39;;;;;;;27.58;14.90;;;7.30;99.90;;;;;;5118586;27;20062;-63
2022/11/23 05:34:05;;;;;;;28.30;13.30;;;7.30;99.90;;;;;;5118260;27;20388;-63
2022/11/23 05:36:43;;;;;;;34.00;15.38;;;7.30;99.90;;;;;;5118334;27;20023;-63
2022/11/23 05:39:09;;;;;;;21.45;13.07;;;7.40;99.90;;;;;;5136691;27;20034;-63
2022/11/23 05:41:37;;;;;;;20.58;11.60;;;7.40;99.90;;;;;;5118411;27;20488;-63
2022/11/23 05:44:06;;;;;;;17.70;11.32;;;7.40;99.90;;;;;;5117976;27;20060;-63
2022/11/23 05:46:32;;;;;;;19.05;11.23;;;7.50;99.90;;;;;;5118287;27;20537;-62
2022/11/23 05:48:58;;;;;;;21.20;10.20;;;7.40;99.90;;;;;;5117382;27;20023;-63
2022/11/23 05:51:27;;;;;;;25.15;8.85;;;7.50;99.90;;;;;;5117954;27;20105;-63
2022/11/23 05:53:55;;;;;;;16.95;7.95;;;7.50;99.90;;;;;;5118104;27;20038;-63
2022/11/23 05:56:37;;;;;;;15.57;7.00;;;7.40;99.90;;;;;;5117917;27;20026;-63
2022/11/23 05:59:09;;;;;;;19.83;6.90;;;7.50;99.90;;;;;;5117875;27;20027;-63
2022/11/23 06:01:38;;;;;;;12.73;5.97;;;7.50;99.90;;;;;;5117847;27;20029;-63
2022/11/23 06:04:06;;;;;;;16.90;6.05;;;7.40;99.90;;;;;;5117591;27;20031;-63
2022/11/23 06:06:37;;;;;;;18.55;8.00;;;7.40;99.90;;;;;;5117925;27;20054;-63
2022/11/23 06:09:03;;;;;;;28.77;14.13;;;7.50;99.90;;;;;;5117635;27;20031;-63
2022/11/23 06:11:31;;;;;;;16.02;6.80;;;7.50;99.90;;;;;;5117308;27;20441;-63
2022/11/23 06:14:02;;;;;;;14.43;7.30;;;7.60;99.90;;;;;;5117438;27;20380;-63
2022/11/23 06:16:29;;;;;;;15.00;6.55;;;7.60;99.90;;;;;;5117704;27;20027;-63
2022/11/23 06:19:03;;;;;;;25.83;8.43;;;7.60;99.90;;;;;;5117371;27;20027;-63
2022/11/23 06:21:29;;;;;;;10.07;5.68;;;7.60;99.90;;;;;;5117557;27;20027;-63
2022/11/23 06:23:55;;;;;;;13.40;5.93;;;7.60;99.90;;;;;;5117499;27;20047;-63
2022/11/23 06:26:21;;;;;;;21.35;7.38;;;7.70;99.90;;;;;;5117152;27;20076;-63
2022/11/23 06:28:47;;;;;;;13.02;5.32;;;7.60;99.90;;;;;;5095588;28;20469;-63
2022/11/23 06:31:16;;;;;;;14.43;6.18;;;7.60;99.90;;;;;;5098346;28;20023;-63
2022/11/23 06:33:42;;;;;;;15.93;6.90;;;7.70;99.90;;;;;;5116377;27;20484;-63
2022/11/23 06:36:09;;;;;;;12.52;5.38;;;7.60;99.90;;;;;;5136144;27;20072;-63
2022/11/23 06:38:45;;;;;;;13.65;5.07;;;7.70;99.90;;;;;;5115193;28;20024;-62
2022/11/23 06:41:15;;;;;;;10.52;4.60;;;7.60;99.90;;;;;;5096485;28;20035;-63
2022/11/23 06:43:41;;;;;;;16.13;6.63;;;7.70;99.90;;;;;;5096748;28;20460;-63
2022/11/23 06:46:07;;;;;;;18.63;8.30;;;7.70;99.90;;;;;;5088735;28;20027;-64
2022/11/23 06:48:37;;;;;;;70.45;21.67;;;7.70;99.90;;;;;;5114376;27;20122;-63
2022/11/23 06:51:05;;;;;;;73.15;25.83;;;7.70;99.90;;;;;;5123637;27;20032;-63
2022/11/23 06:53:31;;;;;;;61.08;23.70;;;7.70;99.90;;;;;;5111066;27;20491;-63
2022/11/23 06:56:01;;;;;;;54.05;17.90;;;7.70;99.90;;;;;;5115819;28;20536;-63
2022/11/23 06:58:29;;;;;;;56.10;20.02;;;7.70;99.90;;;;;;5108012;27;20098;-63
2022/11/23 07:01:01;;;;;;;24.80;10.60;;;7.70;99.90;;;;;;5120476;27;21374;-63
2022/11/23 07:03:31;;;;;;;31.27;10.60;;;7.80;99.90;;;;;;5113982;27;20027;-63
2022/11/23 07:06:08;;;;;;;25.60;9.48;;;7.60;99.90;;;;;;5117522;27;20035;-63
2022/11/23 07:08:38;;;;;;;12.50;5.72;;;7.60;99.90;;;;;;5113587;27;20031;-63
2022/11/23 07:11:21;;;;;;;28.30;8.57;;;7.70;99.90;;;;;;5109499;28;20114;-63
2022/11/23 07:13:47;;;;;;;19.55;7.78;;;7.60;99.90;;;;;;5117174;27;20657;-64
2022/11/23 07:16:14;;;;;;;16.35;7.65;;;7.60;99.90;;;;;;5120081;27;20595;-63
2022/11/23 07:18:40;;;;;;;8.18;3.78;;;7.60;99.90;;;;;;5132107;27;20023;-63
2022/11/23 07:21:06;;;;;;;9.73;4.07;;;7.60;99.90;;;;;;5100542;28;20027;-63
2022/11/23 07:23:37;;;;;;;15.27;4.30;;;7.50;99.90;;;;;;5118872;27;20414;-64
2022/11/23 07:26:03;;;;;;;11.50;5.07;;;7.50;99.90;;;;;;5146561;27;20027;-63
2022/11/23 07:28:29;;;;;;;15.80;5.45;;;7.50;99.90;;;;;;5124066;27;20042;-63
2022/11/23 07:30:55;;;;;;;21.30;6.53;;;7.40;99.90;;;;;;5117852;27;20027;-63
2022/11/23 07:33:21;;;;;;;27.35;5.25;;;7.40;99.90;;;;;;5125152;27;20028;-63
2022/11/23 07:35:48;;;;;;;15.88;6.25;;;7.50;99.90;;;;;;5108592;28;20084;-63
2022/11/23 07:38:14;;;;;;;15.80;4.65;;;7.50;99.90;;;;;;5118841;28;20024;-64
2022/11/23 07:40:41;;;;;;;13.50;4.55;;;7.40;99.90;;;;;;5111100;27;20039;-63
2022/11/23 07:43:17;;;;;;;14.48;4.30;;;7.40;99.90;;;;;;5100734;28;20591;-64
2022/11/23 07:45:47;;;;;;;13.50;3.33;;;7.40;99.90;;;;;;5101097;27;20027;-63
2022/11/23 07:48:15;;;;;;;20.63;4.40;;;7.40;99.90;;;;;;5108337;27;20027;-63
2022/11/23 07:50:44;;;;;;;25.58;9.98;;;7.40;99.90;;;;;;5121727;27;20023;-63
2022/11/23 07:53:10;;;;;;;34.67;9.32;;;7.40;99.90;;;;;;5130924;27;20114;-63
2022/11/23 07:55:36;;;;;;;28.90;12.18;;;7.30;99.90;;;;;;5136184;27;20015;-63
2022/11/23 07:58:02;;;;;;;39.42;15.07;;;7.20;99.90;;;;;;5138427;27;20385;-64
2022/11/23 08:00:29;;;;;;;18.65;8.27;;;7.30;99.90;;;;;;5119860;27;20530;-64
2022/11/23 08:02:56;;;;;;;27.23;8.43;;;7.30;99.90;;;;;;5119930;27;20065;-64
2022/11/23 08:05:22;;;;;;;12.20;5.07;;;7.40;99.90;;;;;;5137552;27;20102;-63
2022/11/23 08:07:48;;;;;;;13.15;5.25;;;7.30;99.90;;;;;;5138151;27;20058;-64
2022/11/23 08:10:14;;;;;;;23.83;8.35;;;7.20;99.90;;;;;;5136964;27;20075;-64
2022/11/23 08:12:41;;;;;;;15.85;7.13;;;7.20;99.90;;;;;;5137994;27;20421;-63
2022/11/23 08:15:07;;;;;;;26.38;8.32;;;7.20;99.90;;;;;;5128956;27;20048;-64
2022/11/23 08:17:33;;;;;;;8.10;3.97;;;7.30;99.90;;;;;;5118400;27;20030;-63
2022/11/23 08:19:59;;;;;;;22.30;5.88;;;7.20;99.90;;;;;;5120375;27;20027;-64
2022/11/23 08:22:26;;;;;;;5.68;3.00;;;7.20;99.90;;;;;;5139162;27;20027;-63
2022/11/23 08:24:51;;;;;;;26.63;4.88;;;7.20;99.90;;;;;;5138731;27;20032;-63
2022/11/23 08:27:17;;;;;;;21.70;5.18;;;7.00;99.90;;;;;;5138759;27;20756;-63
2022/11/23 08:29:43;;;;;;;14.10;3.38;;;7.10;99.90;;;;;;5136655;27;20061;-63
2022/11/23 08:32:12;;;;;;;14.90;5.32;;;7.10;99.90;;;;;;5138765;27;20019;-63
2022/11/23 08:34:38;;;;;;;12.25;4.63;;;7.00;99.90;;;;;;5138563;27;20414;-63
2022/11/23 08:37:04;;;;;;;11.98;4.35;;;7.00;99.90;;;;;;5138063;27;20090;-63
2022/11/23 08:39:30;;;;;;;13.90;4.50;;;7.00;99.90;;;;;;5137505;27;20034;-63
2022/11/23 08:41:56;;;;;;;15.32;4.63;;;7.10;99.90;;;;;;5137545;27;20046;-63
2022/11/23 08:44:21;;;;;;;16.52;4.60;;;7.00;99.90;;;;;;5128956;27;20026;-63
2022/11/23 08:46:47;;;;;;;32.25;5.03;;;7.10;99.90;;;;;;5137329;27;20666;-63
2022/11/23 08:49:13;;;;;;;17.92;5.07;;;7.10;99.90;;;;;;5137141;27;20023;-63
2022/11/23 08:51:39;;;;;;;17.75;3.72;;;7.20;99.90;;;;;;5137195;27;20023;-63
2022/11/23 08:54:05;;;;;;;19.25;4.75;;;6.90;99.90;;;;;;5101679;27;20089;-63
2022/11/23 08:56:31;;;;;;;8.48;3.40;;;7.00;99.90;;;;;;5137250;27;20114;-63
2022/11/23 08:58:57;;;;;;;14.25;5.38;;;7.10;99.90;;;;;;5137425;27;20152;-64
2022/11/23 09:01:22;;;;;;;34.20;9.15;;;7.10;99.90;;;;;;5137592;27;20023;-64
2022/11/23 09:03:49;;;;;;;24.50;8.00;;;7.20;99.90;;;;;;5137007;27;20425;-64
2022/11/23 09:06:15;;;;;;;22.08;7.45;;;7.20;99.90;;;;;;5137368;27;20050;-64
2022/11/23 09:08:41;;;;;;;12.90;4.88;;;7.20;99.90;;;;;;5118696;27;20057;-63
2022/11/23 09:11:11;;;;;;;29.08;5.70;;;7.20;99.90;;;;;;5118562;27;20042;-63
2022/11/23 09:13:37;;;;;;;9.20;3.50;;;7.20;99.90;;;;;;5136933;27;20030;-63
2022/11/23 09:16:05;;;;;;;12.13;4.55;;;7.30;99.90;;;;;;5136801;27;20126;-63
2022/11/23 09:18:35;;;;;;;31.48;6.03;;;7.30;99.90;;;;;;5136805;27;20553;-64
2022/11/23 09:21:04;;;;;;;21.95;8.05;;;7.30;99.90;;;;;;5137008;27;20110;-64
2022/11/23 09:23:31;;;;;;;15.35;7.05;;;7.40;99.90;;;;;;5136155;27;20031;-63
2022/11/23 09:26:00;;;;;;;11.35;4.65;;;7.40;99.90;;;;;;5135657;27;20472;-64
2022/11/23 09:28:27;;;;;;;17.73;6.10;;;7.50;99.90;;;;;;5137815;27;20487;-63
2022/11/23 09:30:54;;;;;;;13.95;4.38;;;7.30;99.90;;;;;;5136877;27;20019;-63
2022/11/23 09:33:21;;;;;;;23.98;7.65;;;7.50;99.90;;;;;;5136358;27;20131;-63
2022/11/23 09:35:46;;;;;;;18.27;5.93;;;7.60;99.90;;;;;;5136673;27;20400;-63
2022/11/23 09:38:12;;;;;;;36.65;8.07;;;7.70;99.90;;;;;;5136408;27;20033;-63
2022/11/23 09:40:40;;;;;;;30.70;6.18;;;7.80;99.90;;;;;;5136312;27;20019;-62
2022/11/23 09:43:41;;;;;;;20.40;6.80;;;7.70;99.90;;;;;;5136649;27;20057;-62
2022/11/23 09:46:20;;;;;;;36.85;11.70;;;7.80;99.90;;;;;;5079180;27;20046;-63
2022/11/23 09:49:16;;;;;;;39.13;11.48;;;7.90;99.90;;;;;;5135919;27;20031;-63
2022/11/23 09:51:43;;;;;;;21.15;9.30;;;8.00;99.90;;;;;;5129240;27;20054;-63
2022/11/23 09:54:25;;;;;;;19.02;5.63;;;8.10;99.90;;;;;;5136643;27;20027;-64
2022/11/23 09:56:53;;;;;;;12.90;5.60;;;8.10;99.90;;;;;;5136424;27;20110;-63
2022/11/23 09:59:30;;;;;;;13.18;3.58;;;8.20;99.90;;;;;;5134911;27;20067;-63
2022/11/23 10:01:57;;;;;;;23.70;5.18;;;8.20;99.90;;;;;;5136104;27;20087;-63
2022/11/23 10:04:24;;;;;;;16.42;3.33;;;8.20;99.90;;;;;;5134762;27;20088;-63
2022/11/23 10:06:58;;;;;;;120.30;55.25;;;8.10;99.90;;;;;;5135791;27;20027;-63
2022/11/23 10:09:42;;;;;;;25.92;8.43;;;8.20;99.90;;;;;;5136115;27;20057;-63
2022/11/23 10:12:31;;;;;;;11.75;4.20;;;8.30;99.90;;;;;;5134164;27;20016;-63
2022/11/23 10:15:48;;;;;;;10.40;3.58;;;8.20;99.90;;;;;;5121086;27;20035;-62
2022/11/23 10:18:52;;;;;;;7.85;3.78;;;8.10;99.90;;;;;;5089364;27;20043;-63
2022/11/23 10:21:30;;;;;;;6.22;2.13;;;8.20;99.90;;;;;;5135546;27;20429;-62
2022/11/23 10:24:03;;;;;;;14.10;3.03;;;8.20;99.90;;;;;;5135795;27;20047;-63
2022/11/23 10:26:37;;;;;;;12.88;4.65;;;8.20;99.90;;;;;;5132574;27;20037;-63
2022/11/23 10:29:28;;;;;;;22.25;10.88;;;8.10;99.90;;;;;;5114928;28;20034;-62
2022/11/23 10:31:54;;;;;;;35.75;7.10;;;8.20;99.90;;;;;;5115094;28;20101;-63
2022/11/23 10:34:46;;;;;;;15.05;3.88;;;8.20;99.90;;;;;;5115424;28;20062;-63
2022/11/23 10:37:13;;;;;;;26.55;6.63;;;8.20;99.90;;;;;;5115144;28;20048;-63
2022/11/23 10:39:39;;;;;;;4.93;3.10;;;8.30;99.90;;;;;;5115259;28;20043;-63
2022/11/23 10:42:18;;;;;;;14.18;4.50;;;8.20;99.90;;;;;;5124063;27;20039;-64
2022/11/23 10:44:46;;;;;;;21.13;4.60;;;8.40;99.90;;;;;;5135428;27;20031;-63
2022/11/23 10:47:33;;;;;;;12.65;3.53;;;8.40;99.90;;;;;;5135218;27;20027;-63
2022/11/23 10:49:59;;;;;;;7.43;2.78;;;8.40;99.90;;;;;;5134673;27;20492;-63
2022/11/23 10:52:31;;;;;;;20.02;4.93;;;8.40;99.90;;;;;;5135296;27;20015;-63
2022/11/23 10:55:00;;;;;;;12.23;3.75;;;8.40;99.90;;;;;;5135243;27;20050;-63
2022/11/23 10:57:43;;;;;;;13.18;3.75;;;8.30;99.90;;;;;;5135089;28;20120;-63
2022/11/23 11:00:12;;;;;;;21.33;5.65;;;8.30;99.90;;;;;;5133101;28;20392;-63
2022/11/23 11:02:59;;;;;;;7.60;3.00;;;8.30;99.90;;;;;;5134955;27;20461;-63
2022/11/23 11:05:27;;;;;;;9.55;3.35;;;8.30;99.90;;;;;;5135458;27;20031;-63
2022/11/23 11:07:55;;;;;;;9.85;4.60;;;8.30;99.90;;;;;;5135294;27;20027;-63
2022/11/23 11:10:48;;;;;;;16.42;4.68;;;8.30;99.90;;;;;;5134584;27;20384;-63
2022/11/23 11:13:24;;;;;;;17.13;4.78;;;8.40;99.90;;;;;;5135030;28;20545;-63
2022/11/23 11:16:02;;;;;;;16.58;6.15;;;8.40;99.90;;;;;;5135115;28;20047;-63
2022/11/23 11:18:34;;;;;;;29.65;10.63;;;8.30;99.90;;;;;;5134821;28;20023;-63
2022/11/23 11:21:16;;;;;;;46.75;11.25;;;8.30;99.90;;;;;;5134990;28;20019;-63
2022/11/23 11:23:49;;;;;;;23.50;9.13;;;8.40;99.90;;;;;;5133306;28;20019;-63
2022/11/23 11:26:21;;;;;;;11.48;4.03;;;8.50;99.90;;;;;;5128755;28;20548;-63
2022/11/23 11:28:52;;;;;;;9.07;3.85;;;8.70;99.90;;;;;;5132967;28;20027;-63
2022/11/23 11:31:41;;;;;;;14.82;3.97;;;8.70;99.90;;;;;;5129027;28;20570;-63
2022/11/23 11:34:25;;;;;;;21.92;8.10;;;8.60;99.90;;;;;;5127845;28;20020;-63
2022/11/23 11:37:16;;;;;;;27.80;10.05;;;8.80;99.90;;;;;;5116509;28;20055;-63
2022/11/23 11:39:54;;;;;;;35.80;18.85;;;8.70;99.90;;;;;;5130097;28;20047;-63
2022/11/23 11:42:43;;;;;;;43.78;25.77;;;8.70;99.90;;;;;;5132571;28;20031;-63
2022/11/23 11:45:24;;;;;;;18.92;5.18;;;8.60;99.90;;;;;;5134791;27;20039;-63
2022/11/23 11:47:53;;;;;;;11.77;5.78;;;8.50;99.90;;;;;;5138413;27;20027;-63
2022/11/23 11:50:25;;;;;;;19.15;6.90;;;8.60;99.90;;;;;;5138510;27;20027;-63
2022/11/23 11:52:59;;;;;;;20.73;6.53;;;8.70;99.90;;;;;;5136640;27;20023;-63
2022/11/23 11:55:56;;;;;;;15.05;7.97;;;8.70;99.90;;;;;;5125776;27;20124;-63
2022/11/23 11:58:27;;;;;;;27.77;12.23;;;8.70;99.90;;;;;;5099801;28;20032;-62
2022/11/23 12:01:03;;;;;;;27.45;10.88;;;8.70;99.90;;;;;;5132871;27;20078;-63
2022/11/23 12:03:59;;;;;;;41.22;12.20;;;8.40;99.90;;;;;;5138286;27;20031;-63
2022/11/23 12:06:39;;;;;;;10.60;3.95;;;8.30;99.90;;;;;;5136071;27;20196;-63
2022/11/23 12:09:17;;;;;;;10.40;3.85;;;8.40;99.90;;;;;;5138261;27;20027;-63
2022/11/23 12:11:43;;;;;;;7.57;3.20;;;8.30;99.90;;;;;;5138114;27;20036;-63
2022/11/23 12:14:13;;;;;;;51.85;23.48;;;8.30;99.90;;;;;;5137965;27;20061;-63
2022/11/23 12:17:18;;;;;;;21.95;9.32;;;8.20;99.90;;;;;;5138153;27;20064;-63
2022/11/23 12:20:18;;;;;;;34.28;8.23;;;8.20;99.90;;;;;;5085884;27;20035;-63
2022/11/23 12:23:02;;;;;;;9.43;3.38;;;8.20;99.90;;;;;;5137909;27;20366;-63
2022/11/23 12:25:35;;;;;;;22.48;7.50;;;8.10;99.90;;;;;;5119604;27;20033;-63
2022/11/23 12:28:39;;;;;;;28.17;9.23;;;8.30;99.90;;;;;;5134651;27;20023;-63
2022/11/23 12:31:25;;;;;;;21.80;4.95;;;8.20;99.90;;;;;;5128494;27;20042;-63
2022/11/23 12:34:12;;;;;;;7.13;3.10;;;8.20;99.90;;;;;;5117437;27;20481;-63
2022/11/23 12:36:47;;;;;;;4.03;2.40;;;8.30;99.90;;;;;;5128311;27;20019;-63
2022/11/23 12:39:40;;;;;;;11.38;3.38;;;8.30;99.90;;;;;;5137673;27;20045;-63
2022/11/23 12:42:09;;;;;;;15.15;4.70;;;8.20;99.90;;;;;;5127593;27;20032;-63
2022/11/23 12:44:43;;;;;;;8.35;4.00;;;8.20;99.90;;;;;;5117244;28;20096;-63
2022/11/23 12:47:36;;;;;;;12.20;3.20;;;8.20;99.90;;;;;;5117052;28;20031;-64
2022/11/23 12:50:10;;;;;;;18.92;4.45;;;8.20;99.90;;;;;;5117250;27;20123;-64
2022/11/23 12:52:36;;;;;;;18.83;4.45;;;8.20;99.90;;;;;;5137804;27;20392;-63
2022/11/23 12:55:25;;;;;;;18.90;4.75;;;8.20;99.90;;;;;;5137169;27;20024;-62
2022/11/23 12:58:01;;;;;;;18.98;4.47;;;8.30;99.90;;;;;;5136074;27;20069;-63
2022/11/23 13:00:34;;;;;;;39.38;7.10;;;8.30;99.90;;;;;;5137321;27;20030;-63
2022/11/23 13:03:37;;;;;;;19.35;5.47;;;8.20;99.90;;;;;;5137636;27;20065;-63